createdAt,value
2019-05-15T00:03:39.338Z,4.52
2019-05-15T00:08:43.554Z,4.50
2019-05-15T00:13:48.362Z,4.37
2019-05-15T00:18:52.578Z,4.25
2019-05-15T00:23:58.666Z,4.00
2019-05-15T00:29:12.877Z,4.07
2019-05-15T00:34:12.685Z,4.05
2019-05-15T00:39:14.739Z,4.03
2019-05-15T00:44:18.839Z,3.91
2019-05-15T00:49:22.961Z,3.97
2019-05-15T00:54:28.265Z,3.92
2019-05-15T00:59:32.800Z,3.84
2019-05-15T01:04:38.739Z,3.65
2019-05-15T01:09:42.544Z,3.88
2019-05-15T01:14:48.788Z,3.58
2019-05-15T01:19:52.626Z,3.66
2019-05-15T01:24:58.829Z,3.55
2019-05-15T01:30:02.437Z,3.48
2019-05-15T01:35:09.221Z,3.39
2019-05-15T01:40:12.674Z,3.25
2019-05-15T01:45:18.839Z,3.06
2019-05-15T01:50:22.863Z,2.96
2019-05-15T01:55:28.441Z,2.89
2019-05-15T02:00:33.194Z,2.94
2019-05-15T02:05:39.031Z,3.09
2019-05-15T02:10:43.031Z,2.87
2019-05-15T02:15:48.326Z,2.79
2019-05-15T02:20:52.545Z,2.83
2019-05-15T02:25:58.747Z,2.65
2019-05-15T02:31:03.004Z,2.61
2019-05-15T02:36:09.704Z,2.45
2019-05-15T02:41:12.857Z,2.43
2019-05-15T02:46:19.362Z,2.52
2019-05-15T02:51:24.397Z,2.41
2019-05-15T02:56:29.312Z,2.32
2019-05-15T03:01:33.960Z,2.18
2019-05-15T03:06:38.919Z,2.05
2019-05-15T03:11:43.515Z,1.98
2019-05-15T03:16:49.722Z,1.90
2019-05-15T03:21:53.261Z,1.59
2019-05-15T03:26:59.232Z,1.64
2019-05-15T03:32:18.216Z,1.67
2019-05-15T03:37:12.358Z,1.74
2019-05-15T03:42:14.974Z,1.71
2019-05-15T03:47:19.533Z,1.59
2019-05-15T03:52:23.870Z,1.54
2019-05-15T03:57:30.388Z,1.66
2019-05-15T04:02:33.932Z,1.74
2019-05-15T04:07:39.807Z,1.85
2019-05-15T04:12:43.959Z,2.19
2019-05-15T04:17:49.318Z,2.74
2019-05-15T04:22:53.763Z,3.44
2019-05-15T04:27:59.230Z,4.32
2019-05-15T04:33:03.311Z,5.29
2019-05-15T04:38:09.370Z,5.93
2019-05-15T04:43:13.122Z,5.98
2019-05-15T04:48:19.944Z,6.19
2019-05-15T04:53:23.434Z,6.05
2019-05-15T04:58:29.955Z,6.09
2019-05-15T05:03:34.780Z,6.84
2019-05-15T05:08:40.281Z,7.21
2019-05-15T05:13:44.413Z,7.36
2019-05-15T05:19:08.926Z,7.40
2019-05-15T05:24:12.522Z,7.49
2019-05-15T05:29:17.820Z,6.92
2019-05-15T05:34:22.429Z,7.54
2019-05-15T05:39:29.404Z,7.11
2019-05-15T05:44:33.998Z,7.37
2019-05-15T05:49:38.373Z,7.17
2019-05-15T05:54:42.448Z,7.36
2019-05-15T05:59:48.909Z,7.99
2019-05-15T06:04:52.757Z,8.35
2019-05-15T06:09:58.136Z,8.25
2019-05-15T06:15:02.469Z,8.72
2019-05-15T06:20:08.080Z,9.34
2019-05-15T06:25:12.645Z,9.73
2019-05-15T06:30:22.043Z,9.54
2019-05-15T06:35:22.665Z,9.47
2019-05-15T06:40:28.961Z,9.42
2019-05-15T06:45:32.687Z,9.63
2019-05-15T06:50:38.486Z,10.55
2019-05-15T06:55:42.779Z,10.67
2019-05-15T07:00:48.743Z,10.88
2019-05-15T07:05:52.833Z,14.60
2019-05-15T07:10:57.847Z,19.63
2019-05-15T07:16:02.351Z,18.76
2019-05-15T07:21:09.937Z,18.64
2019-05-15T07:26:12.667Z,19.41
2019-05-15T07:31:18.096Z,18.33
2019-05-15T07:36:22.328Z,17.46
2019-05-15T07:41:28.298Z,14.03
2019-05-15T07:46:32.639Z,16.27
2019-05-15T07:51:38.144Z,17.63
2019-05-15T07:56:43.252Z,17.51
2019-05-15T08:01:48.849Z,14.88
2019-05-15T08:06:53.106Z,15.54
2019-05-15T08:12:00.196Z,13.48
2019-05-15T08:17:02.915Z,13.00
2019-05-15T08:22:08.884Z,14.21
2019-05-15T08:27:14.130Z,13.71
2019-05-15T08:32:18.998Z,13.72
2019-05-15T08:37:23.466Z,13.13
2019-05-15T08:42:28.165Z,12.91
2019-05-15T08:47:32.540Z,13.75
2019-05-15T08:52:39.094Z,13.45
2019-05-15T08:57:42.396Z,15.08
2019-05-15T09:02:48.673Z,14.85
2019-05-15T09:07:52.284Z,14.05
2019-05-15T09:12:58.511Z,14.47
2019-05-15T09:18:14.729Z,14.47
2019-05-15T09:23:08.972Z,14.94
2019-05-15T09:28:13.169Z,13.47
2019-05-15T09:33:20.078Z,13.62
2019-05-15T09:38:23.074Z,14.31
2019-05-15T09:43:29.676Z,14.26
2019-05-15T09:48:33.773Z,15.21
2019-05-15T09:53:39.385Z,15.80
2019-05-15T09:58:49.008Z,15.59
2019-05-15T10:03:53.502Z,15.50
2019-05-15T10:08:57.925Z,14.84
2019-05-15T10:14:01.963Z,14.78
2019-05-15T10:19:05.976Z,14.69
2019-05-15T10:24:10.226Z,15.70
2019-05-15T10:29:14.416Z,15.42
2019-05-15T10:34:18.752Z,15.15
2019-05-15T10:39:22.804Z,15.46
2019-05-15T10:44:28.539Z,16.21
2019-05-15T10:49:32.799Z,15.28
2019-05-15T10:54:38.132Z,15.71
2019-05-15T10:59:42.747Z,15.84
2019-05-15T11:04:48.711Z,15.86
2019-05-15T11:09:53.557Z,16.32
2019-05-15T11:14:57.586Z,16.18
2019-05-15T11:20:01.814Z,16.93
2019-05-15T11:25:09.362Z,16.80
2019-05-15T11:30:13.524Z,16.62
2019-05-15T11:35:18.942Z,15.49
2019-05-15T11:40:23.940Z,15.58
2019-05-15T11:45:29.135Z,16.12
2019-05-15T11:50:33.961Z,15.79
2019-05-15T11:55:38.800Z,16.55
2019-05-15T12:00:43.123Z,16.59
2019-05-15T12:05:48.071Z,15.62
2019-05-15T12:10:52.390Z,16.02
2019-05-15T12:15:58.762Z,16.40
2019-05-15T12:21:02.497Z,16.01
2019-05-15T12:26:09.013Z,14.52
2019-05-15T12:31:12.397Z,15.27
2019-05-15T12:36:40.963Z,15.53
2019-05-15T13:01:46.577Z,14.97
2019-05-15T13:07:11.839Z,15.88
2019-05-15T13:11:56.409Z,15.76
2019-05-15T13:17:00.912Z,14.85
2019-05-15T13:22:17.416Z,14.44
2019-05-15T13:27:11.218Z,15.08
2019-05-15T13:32:15.340Z,15.19
2019-05-15T13:37:26.674Z,15.11
2019-05-15T13:42:27.981Z,14.74
2019-05-15T13:47:32.056Z,15.20
2019-05-15T13:52:39.370Z,15.22
2019-05-15T13:57:43.734Z,14.75
2019-05-15T14:02:48.036Z,14.14
2019-05-15T14:07:53.658Z,14.35
2019-05-15T14:12:58.361Z,13.90
2019-05-15T14:18:02.618Z,13.77
2019-05-15T14:23:08.729Z,13.80
2019-05-15T14:28:12.774Z,13.56
2019-05-15T14:33:16.866Z,14.03
2019-05-15T14:38:20.956Z,13.57
2019-05-15T14:43:25.181Z,13.43
2019-05-15T14:48:29.210Z,13.07
2019-05-15T14:53:33.313Z,12.78
2019-05-15T14:58:38.724Z,12.69
2019-05-15T15:03:43.100Z,12.74
2019-05-15T15:08:48.668Z,12.71
2019-05-15T15:13:52.895Z,13.04
2019-05-15T15:18:58.512Z,13.13
2019-05-15T15:24:02.687Z,13.47
2019-05-15T15:29:08.507Z,13.47
2019-05-15T15:34:12.657Z,13.77
2019-05-15T15:39:16.700Z,13.78
2019-05-15T15:44:20.750Z,13.74
2019-05-15T15:49:25.045Z,13.69
2019-05-15T15:54:29.087Z,13.82
2019-05-15T15:59:33.117Z,13.60
2019-05-15T16:04:39.296Z,13.47
2019-05-15T16:09:42.921Z,13.14
2019-05-15T16:14:48.821Z,13.31
2019-05-15T16:19:53.010Z,13.25
2019-05-15T16:24:58.706Z,13.06
2019-05-15T16:30:03.061Z,13.27
2019-05-15T16:35:08.544Z,13.43
2019-05-15T16:40:12.897Z,13.41
2019-05-15T16:45:17.940Z,13.73
2019-05-15T16:50:23.099Z,13.42
2019-05-15T16:55:28.634Z,12.93
2019-05-15T17:00:32.862Z,12.75
2019-05-15T17:05:38.754Z,13.00
2019-05-15T17:10:43.470Z,12.77
2019-05-15T17:15:47.952Z,12.46
2019-05-15T17:20:51.992Z,12.40
2019-05-15T17:25:58.151Z,12.18
2019-05-15T17:31:01.888Z,12.16
2019-05-15T17:36:06.270Z,12.08
2019-05-15T17:41:10.583Z,12.06
2019-05-15T17:46:14.686Z,12.01
2019-05-15T17:51:18.836Z,11.98
2019-05-15T17:56:22.968Z,11.77
2019-05-15T18:01:28.279Z,11.63
2019-05-15T18:06:32.846Z,11.55
2019-05-15T18:11:38.339Z,11.61
2019-05-15T18:16:42.481Z,11.84
2019-05-15T18:21:49.590Z,11.68
2019-05-15T18:26:54.026Z,11.25
2019-05-15T18:31:58.637Z,11.07
2019-05-15T18:37:02.764Z,10.93
2019-05-15T18:42:09.124Z,10.99
2019-05-15T18:47:14.523Z,10.84
2019-05-15T18:52:19.457Z,10.48
2019-05-15T18:57:25.031Z,10.48
2019-05-15T19:02:30.248Z,10.43
2019-05-15T19:07:48.819Z,10.27
2019-05-15T19:13:00.858Z,9.85
2019-05-15T19:18:08.014Z,9.78
2019-05-15T19:23:14.231Z,10.02
2019-05-15T19:28:19.034Z,10.11
2019-05-15T19:33:34.314Z,10.25
2019-05-15T19:38:31.211Z,10.25
2019-05-15T19:43:35.416Z,10.31
2019-05-15T19:48:39.573Z,10.00
2019-05-15T19:53:43.708Z,10.10
2019-05-15T19:58:48.330Z,9.80
2019-05-15T20:03:53.412Z,9.61
2019-05-15T20:08:58.637Z,9.60
2019-05-15T20:14:04.402Z,9.74
2019-05-15T20:19:10.455Z,9.74
2019-05-15T20:24:18.935Z,9.60
2019-05-15T20:29:28.824Z,9.71
2019-05-15T20:34:37.802Z,9.59
2019-05-15T20:39:46.294Z,9.48
2019-05-15T20:44:53.309Z,9.48
2019-05-15T20:49:57.780Z,9.45
2019-05-15T20:55:01.935Z,9.43
2019-05-15T21:00:08.043Z,9.38
2019-05-15T21:05:14.951Z,9.64
2019-05-15T21:10:21.460Z,9.72
2019-05-15T21:15:24.770Z,9.73
2019-05-15T21:20:28.915Z,9.73
2019-05-15T21:25:33.383Z,9.67
2019-05-15T21:30:40.975Z,9.63
2019-05-15T21:35:44.378Z,9.74
2019-05-15T21:40:48.611Z,9.63
2019-05-15T21:45:52.766Z,9.70
2019-05-15T21:50:57.591Z,9.58
2019-05-15T21:56:01.821Z,9.49
2019-05-15T22:01:10.340Z,9.59
2019-05-15T22:06:14.105Z,9.63
2019-05-15T22:11:36.694Z,9.63
2019-05-15T22:17:00.082Z,9.66
2019-05-15T22:22:04.428Z,9.58
2019-05-15T22:27:28.499Z,9.52
2019-05-15T22:32:50.602Z,9.48
2019-05-15T22:37:54.798Z,9.47
2019-05-15T22:42:59.702Z,9.47
2019-05-15T22:48:05.493Z,9.62
2019-05-15T22:53:09.624Z,9.55
2019-05-15T22:58:13.709Z,9.50
2019-05-15T23:03:18.953Z,9.49
2019-05-15T23:08:23.529Z,9.51
2019-05-15T23:13:28.574Z,9.47
2019-05-15T23:18:33.081Z,9.51
2019-05-15T23:23:55.011Z,9.44
2019-05-15T23:28:59.033Z,9.41
2019-05-15T23:34:21.422Z,9.45
2019-05-15T23:39:31.787Z,9.34
2019-05-15T23:44:38.075Z,9.14
2019-05-15T23:49:41.993Z,9.07
2019-05-15T23:54:46.195Z,9.04
2019-05-15T23:59:50.362Z,8.90
